»·PEaware :: N703TE L88-L52

N703TE :: L88-L52

FLIGHT INFORMATION

Flight Status: Arrived
Operator: Privately registered:
United States
More flights under this callsign
Pilot: Daniel S. (25371)
Aircraft: CESSNA 172 SKYHAWK
(C172)
More flights by this aircraft type
Origin: L88 New Cuyama
United States
Destination: L52 Oceano Co
United States
More flights between these airports :: More routes between these airports
Route:
File this flight plan on PilotEdge
Remarks:
Altitude:
(Current/Filed)
7,500ft
Speed:
(Current/Filed)
140kts
Departed: 10-Jul-19 01:38 PM
Arrived: 10-Jul-19 03:00 PM
Distance/Time
Traveled:
47nm/1:22
Distance/Time
To Go:
Arrived

Flight Plot

Page will automatically refresh every two minutes.


Map Options




Map Legend


Flown Route
Filed Route
Departure Airport
Arrival Airport
Navaid (VOR, NDB)
Fix

Horizontal Profiles

Position Reports

Time Latitude Longitude Heading Altitude Ground
Speed
10-Jul-19 13:35 34.942713 -119.690786 195 2156ft 0kts
10-Jul-19 13:36 34.940028 -119.685720 115 2176ft 38kts
10-Jul-19 13:37 34.938723 -119.682554 291 2190ft 44kts
10-Jul-19 13:38 34.945267 -119.704052 284 2574ft 75kts
10-Jul-19 13:39 34.950325 -119.728360 283 2928ft 84kts
10-Jul-19 13:40 34.956245 -119.759436 282 3304ft 115kts
10-Jul-19 13:41 34.963231 -119.796681 283 3926ft 119kts
10-Jul-19 13:42 34.970292 -119.831870 282 4879ft 98kts
10-Jul-19 13:43 34.973791 -119.853811 280 5631ft 89kts
10-Jul-19 13:44 34.977972 -119.879601 275 6375ft 86kts
10-Jul-19 13:45 34.983146 -119.911360 281 6833ft 114kts
10-Jul-19 13:46 34.988591 -119.942920 281 7480ft 113kts
10-Jul-19 13:47 34.995183 -119.980320 282 7471ft 102kts
10-Jul-19 13:48 35.001278 -120.015412 281 7475ft 113kts
10-Jul-19 13:49 35.007403 -120.053735 279 7474ft 116kts
10-Jul-19 13:50 35.013480 -120.092740 281 7474ft 117kts
10-Jul-19 13:51 35.020096 -120.131538 281 7474ft 117kts
10-Jul-19 13:52 35.026749 -120.170402 281 7474ft 117kts
10-Jul-19 13:53 35.033387 -120.209253 281 7474ft 117kts
10-Jul-19 13:54 35.040010 -120.248094 282 7420ft 120kts
10-Jul-19 13:55 35.047446 -120.291602 281 6402ft 130kts
10-Jul-19 13:56 35.055011 -120.336149 282 5245ft 140kts
10-Jul-19 13:57 35.062606 -120.381040 281 4427ft 115kts
10-Jul-19 13:58 35.068327 -120.415062 281 4442ft 95kts
10-Jul-19 13:59 35.071565 -120.434285 281 4443ft 92kts
10-Jul-19 14:00 35.071565 -120.434285 281 4443ft 92kts
10-Jul-19 14:01 35.071565 -120.434285 281 4443ft 92kts
10-Jul-19 14:02 35.071565 -120.434285 281 4443ft 92kts
10-Jul-19 14:03 35.071565 -120.434285 281 4443ft 92kts
10-Jul-19 14:04 35.071565 -120.434285 281 4443ft 92kts
10-Jul-19 14:05 35.071565 -120.434285 281 4443ft 92kts
10-Jul-19 14:06 35.071565 -120.434285 281 4443ft 92kts
10-Jul-19 14:07 35.071565 -120.434285 281 4443ft 92kts
10-Jul-19 14:08 35.071565 -120.434285 281 4443ft 92kts
10-Jul-19 14:09 35.071565 -120.434285 281 4443ft 92kts
10-Jul-19 14:10 35.071565 -120.434285 281 4443ft 92kts
10-Jul-19 14:11 35.071565 -120.434285 281 4443ft 92kts
10-Jul-19 14:12 35.071565 -120.434285 281 4443ft 92kts
10-Jul-19 14:13 35.071565 -120.434285 281 4443ft 92kts
10-Jul-19 14:14 35.071565 -120.434285 281 4443ft 92kts
10-Jul-19 14:15 35.071565 -120.434285 281 4443ft 92kts
10-Jul-19 14:16 35.071565 -120.434285 281 4443ft 92kts
10-Jul-19 14:17 35.071565 -120.434285 281 4443ft 92kts
10-Jul-19 14:18 35.071565 -120.434285 281 4443ft 92kts
10-Jul-19 14:19 35.071565 -120.434285 281 4443ft 92kts
10-Jul-19 14:20 35.071565 -120.434285 281 4443ft 92kts
10-Jul-19 14:21 35.071565 -120.434285 281 4443ft 92kts
10-Jul-19 14:22 35.071565 -120.434285 281 4443ft 92kts
10-Jul-19 14:23 35.071565 -120.434285 281 4443ft 92kts
10-Jul-19 14:24 35.071565 -120.434285 281 4443ft 92kts
10-Jul-19 14:25 35.071565 -120.434285 281 4443ft 92kts
10-Jul-19 14:26 35.071565 -120.434285 281 4443ft 92kts
10-Jul-19 14:27 35.071565 -120.434285 281 4443ft 92kts
10-Jul-19 14:28 35.071565 -120.434285 281 4443ft 92kts
10-Jul-19 14:29 35.071565 -120.434285 281 4443ft 92kts
10-Jul-19 14:30 35.071565 -120.434285 281 4443ft 92kts
10-Jul-19 14:31 35.071565 -120.434285 281 4443ft 92kts
10-Jul-19 14:32 35.071565 -120.434285 281 4443ft 92kts
10-Jul-19 14:33 35.071565 -120.434285 281 4443ft 92kts
10-Jul-19 14:34 35.071565 -120.434285 281 4443ft 92kts
10-Jul-19 14:35 35.071565 -120.434285 281 4443ft 92kts
10-Jul-19 14:36 35.071565 -120.434285 281 4443ft 92kts
10-Jul-19 14:37 35.071565 -120.434285 281 4443ft 92kts
10-Jul-19 14:38 35.071565 -120.434285 281 4443ft 92kts
10-Jul-19 14:39 35.071565 -120.434285 281 4443ft 92kts
10-Jul-19 14:40 35.071565 -120.434285 281 4443ft 92kts
10-Jul-19 14:41 35.071565 -120.434285 281 4443ft 92kts
10-Jul-19 14:42 35.071565 -120.434285 281 4443ft 92kts
10-Jul-19 14:44 35.071565 -120.434285 281 4443ft 92kts
10-Jul-19 14:45 35.071565 -120.434285 281 4443ft 92kts
10-Jul-19 14:46 35.071565 -120.434285 281 4443ft 92kts
10-Jul-19 14:47 35.071565 -120.434285 281 4443ft 92kts
10-Jul-19 14:48 35.071565 -120.434285 281 4443ft 92kts
10-Jul-19 14:49 35.071565 -120.434285 281 4443ft 92kts
10-Jul-19 14:50 35.071565 -120.434285 281 4443ft 92kts
10-Jul-19 14:51 35.071565 -120.434285 281 4443ft 92kts
10-Jul-19 14:52 35.073893 -120.451610 283 4434ft 91kts
10-Jul-19 14:53 35.079458 -120.481545 282 4434ft 88kts
10-Jul-19 14:54 35.084891 -120.513271 282 4122ft 100kts
10-Jul-19 14:55 35.090857 -120.548071 282 3397ft 113kts
10-Jul-19 14:56 35.099001 -120.583625 295 2319ft 94kts
10-Jul-19 14:57 35.104596 -120.614193 254 1432ft 89kts
10-Jul-19 14:58 35.089771 -120.621069 155 1175ft 53kts
10-Jul-19 14:59 35.094222 -120.607443 304 690ft 60kts
10-Jul-19 15:00 35.101512 -120.622207 302 16ft 33kts
10-Jul-19 15:01 35.102666 -120.623176 201 16ft 0kts
10-Jul-19 15:02 35.102666 -120.623176 201 16ft 0kts
10-Jul-19 15:02 35.102666 -120.623176 201 16ft 0kts
10-Jul-19 15:04 35.102655 -120.623181 199 16ft 0kts
10-Jul-19 15:05 35.100621 -120.621476 120 17ft 28kts

Navigation Log

Ident Type
Flight plan parsing failed, navigation log unavailable